Coningsby, RAF Coningsby (EGXC)

NameRAF Coningsby
CityConingsby
CountryUnited Kingdom
ICAOEGXC
IATAQCY
Altitude8 m
CoordinatesGoogle Map
Live Air TrafficLiveATC.net
METAREGXC 251650Z 13008KT CAVOK 14/06 Q1014 RMK BLU
2020-04-25 16:50:00 Wind: East-Southeast (130°) 4.12 m/s - Visibility: > 10000 m - Weather: CAVOK - Temperature: 14 °C - Dew point: 6 °C - Humidity: 58.8% - Pressure: 1014 hPa
Statistics

The table below shows the detailed information of all flights to/from Coningsby, RAF Coningsby (EGXC).